Time;durP1;ratioP1;P1;durP2;ratioP2;P2;SDS_P1;SDS_P2;PMS_P1;PMS_P2;Temp;Humidity;BMP_temperature;BMP_pressure;BME280_temperature;BME280_humidity;BME280_pressure;Samples;Min_cycle;Max_cycle;Signal;HPM_P1;HPM_P2
2020/12/25 00:01:55;;;;;;;;;0.00;0.00;;;;;;;;4973743;28;11483;-81
2020/12/25 00:04:22;;;;;;;;;0.00;0.00;;;;;;;;4975668;28;11508;-86
2020/12/25 00:06:49;;;;;;;;;0.00;0.00;;;;;;;;4976562;28;11583;-77
2020/12/25 00:09:17;;;;;;;;;0.00;0.00;;;;;;;;4971794;28;12291;-84
2020/12/25 00:11:44;;;;;;;;;0.50;0.50;;;;;;;;4973155;28;12272;-77
2020/12/25 00:14:11;;;;;;;;;0.00;0.00;;;;;;;;4989624;28;11753;-76
2020/12/25 00:16:38;;;;;;;;;0.00;0.00;;;;;;;;4972622;28;11493;-79
2020/12/25 00:19:05;;;;;;;;;0.00;0.00;;;;;;;;4978524;28;11524;-80
2020/12/25 00:21:32;;;;;;;;;0.00;0.00;;;;;;;;4975999;28;11540;-82
2020/12/25 00:23:59;;;;;;;;;0.50;0.25;;;;;;;;4977909;28;11541;-76
2020/12/25 00:26:28;;;;;;;;;0.00;0.00;;;;;;;;4973271;28;11517;-78
2020/12/25 00:28:56;;;;;;;;;0.00;0.00;;;;;;;;4972884;28;11526;-82
2020/12/25 00:31:28;;;;;;;;;0.00;0.00;;;;;;;;4979742;28;11460;-84
2020/12/25 00:33:56;;;;;;;;;0.00;0.00;;;;;;;;4980305;28;11548;-76
2020/12/25 00:36:30;;;;;;;;;0.00;0.00;;;;;;;;4962044;28;11511;-76
2020/12/25 00:38:59;;;;;;;;;0.00;0.00;;;;;;;;4969614;28;11563;-79
2020/12/25 00:41:26;;;;;;;;;1.00;1.00;;;;;;;;4954104;28;11544;-78
2020/12/25 00:43:54;;;;;;;;;0.00;0.00;;;;;;;;4979522;28;11581;-76
2020/12/25 00:46:21;;;;;;;;;2.00;0.00;;;;;;;;4959189;28;11525;-77
2020/12/25 00:48:48;;;;;;;;;0.50;0.50;;;;;;;;4964362;28;12424;-76
2020/12/25 00:51:17;;;;;;;;;0.50;0.00;;;;;;;;4977501;28;11527;-83
2020/12/25 00:53:44;;;;;;;;;0.25;0.00;;;;;;;;4972469;28;11153;-76
2020/12/25 00:56:12;;;;;;;;;2.00;0.00;;;;;;;;4974608;28;11531;-79
2020/12/25 00:58:40;;;;;;;;;0.50;0.50;;;;;;;;4954914;28;11582;-76
2020/12/25 01:01:08;;;;;;;;;0.00;0.00;;;;;;;;4969589;28;11476;-79
2020/12/25 01:03:36;;;;;;;;;0.00;0.00;;;;;;;;4976666;28;11612;-76
2020/12/25 01:06:08;;;;;;;;;0.00;0.00;;;;;;;;4974214;28;11554;-79
2020/12/25 01:08:35;;;;;;;;;0.00;0.00;;;;;;;;4965287;28;11636;-77
2020/12/25 01:11:02;;;;;;;;;0.00;0.00;;;;;;;;4972544;28;12293;-76
2020/12/25 01:13:28;;;;;;;;;0.00;0.00;;;;;;;;4968257;28;11528;-77
2020/12/25 01:15:58;;;;;;;;;0.50;0.00;;;;;;;;4974461;28;11607;-78
2020/12/25 01:18:26;;;;;;;;;0.00;0.00;;;;;;;;4970757;28;11519;-82
2020/12/25 01:20:53;;;;;;;;;1.25;0.00;;;;;;;;4966378;28;12301;-76
2020/12/25 01:23:20;;;;;;;;;0.25;0.00;;;;;;;;4969177;28;11512;-78
2020/12/25 01:25:46;;;;;;;;;0.00;0.00;;;;;;;;4973570;28;11568;-79
2020/12/25 01:28:13;;;;;;;;;0.00;0.00;;;;;;;;4969911;28;11551;-76
2020/12/25 01:30:40;;;;;;;;;0.00;0.00;;;;;;;;4969203;28;11509;-78
2020/12/25 01:33:07;;;;;;;;;0.00;0.00;;;;;;;;4970609;28;12194;-77
2020/12/25 01:35:34;;;;;;;;;0.75;0.00;;;;;;;;4955914;28;11625;-78
2020/12/25 01:38:01;;;;;;;;;1.00;0.00;;;;;;;;4953067;28;11505;-76
2020/12/25 01:40:28;;;;;;;;;0.00;0.00;;;;;;;;4972609;28;11589;-79
2020/12/25 01:42:55;;;;;;;;;0.00;0.00;;;;;;;;4974256;28;11503;-77
2020/12/25 01:45:23;;;;;;;;;0.00;0.00;;;;;;;;4975368;28;11521;-78
2020/12/25 01:47:51;;;;;;;;;0.00;0.00;;;;;;;;4984446;28;11607;-79
2020/12/25 01:50:19;;;;;;;;;0.00;0.00;;;;;;;;4970126;28;11543;-76
2020/12/25 01:52:46;;;;;;;;;0.00;0.00;;;;;;;;4955869;28;11532;-76
2020/12/25 01:55:14;;;;;;;;;0.50;0.50;;;;;;;;4949181;28;11571;-81
2020/12/25 01:57:41;;;;;;;;;0.00;0.00;;;;;;;;4971283;28;11531;-77
2020/12/25 02:00:09;;;;;;;;;2.00;0.00;;;;;;;;4971094;28;11652;-80
2020/12/25 02:02:35;;;;;;;;;0.00;0.00;;;;;;;;4963042;28;11522;-78
2020/12/25 02:05:03;;;;;;;;;0.00;0.00;;;;;;;;4974430;28;11563;-79
2020/12/25 02:07:30;;;;;;;;;0.00;0.00;;;;;;;;4968440;28;11569;-76
2020/12/25 02:09:57;;;;;;;;;0.00;0.00;;;;;;;;4968541;28;11567;-76
2020/12/25 02:12:24;;;;;;;;;0.00;0.00;;;;;;;;4967402;28;11505;-80
2020/12/25 02:14:51;;;;;;;;;0.00;0.00;;;;;;;;4978287;28;11525;-85
2020/12/25 02:17:17;;;;;;;;;1.00;0.00;;;;;;;;4974262;28;11510;-76
2020/12/25 02:19:44;;;;;;;;;0.00;0.00;;;;;;;;4979408;28;11546;-80
2020/12/25 02:22:12;;;;;;;;;1.75;0.00;;;;;;;;4970177;28;11538;-80
2020/12/25 02:24:39;;;;;;;;;2.00;0.00;;;;;;;;4978399;28;11523;-78
2020/12/25 02:27:06;;;;;;;;;0.00;0.00;;;;;;;;4968943;28;12476;-80
2020/12/25 02:29:32;;;;;;;;;0.00;0.00;;;;;;;;4976281;28;11551;-76
2020/12/25 02:31:59;;;;;;;;;0.25;0.25;;;;;;;;4967338;28;11551;-77
2020/12/25 02:34:26;;;;;;;;;0.00;0.00;;;;;;;;4974361;28;11565;-77
2020/12/25 02:36:53;;;;;;;;;0.00;0.00;;;;;;;;4980943;28;11521;-79
2020/12/25 02:39:21;;;;;;;;;0.00;0.00;;;;;;;;4965768;28;11614;-76
2020/12/25 02:41:48;;;;;;;;;0.00;0.00;;;;;;;;4965846;28;11578;-78
2020/12/25 02:44:15;;;;;;;;;0.75;0.75;;;;;;;;4968138;28;12273;-79
2020/12/25 02:46:41;;;;;;;;;0.00;0.00;;;;;;;;4978963;28;11533;-76
2020/12/25 02:49:08;;;;;;;;;0.75;0.00;;;;;;;;4972345;28;11520;-76
2020/12/25 02:51:35;;;;;;;;;0.00;0.00;;;;;;;;4981957;28;11517;-75
2020/12/25 02:54:01;;;;;;;;;0.00;0.00;;;;;;;;4977395;28;11532;-76
2020/12/25 02:56:29;;;;;;;;;2.00;0.00;;;;;;;;4980833;28;11566;-81
2020/12/25 02:58:56;;;;;;;;;0.50;0.00;;;;;;;;4973224;28;12301;-75
2020/12/25 03:01:22;;;;;;;;;0.00;0.00;;;;;;;;4975108;28;11470;-76
2020/12/25 03:03:49;;;;;;;;;2.00;0.00;;;;;;;;4968862;28;11536;-77
2020/12/25 03:06:15;;;;;;;;;2.00;0.00;;;;;;;;4966707;28;11536;-75
2020/12/25 03:08:42;;;;;;;;;0.00;0.00;;;;;;;;4974136;28;11564;-75
2020/12/25 03:11:09;;;;;;;;;0.00;0.00;;;;;;;;4980744;28;11509;-77
2020/12/25 03:13:36;;;;;;;;;0.00;0.00;;;;;;;;4977404;28;11524;-78
2020/12/25 03:16:04;;;;;;;;;1.00;1.00;;;;;;;;4968759;28;11595;-76
2020/12/25 03:18:31;;;;;;;;;2.75;1.75;;;;;;;;4965344;28;11531;-75
2020/12/25 03:20:58;;;;;;;;;0.00;0.00;;;;;;;;4972535;28;11706;-73
2020/12/25 03:23:24;;;;;;;;;0.75;0.75;;;;;;;;4963210;28;11526;-78
2020/12/25 03:25:52;;;;;;;;;0.25;0.25;;;;;;;;4974378;28;11576;-75
2020/12/25 03:28:19;;;;;;;;;0.75;0.75;;;;;;;;4973505;28;11513;-75
2020/12/25 03:30:46;;;;;;;;;0.00;0.00;;;;;;;;4975829;28;11493;-77
2020/12/25 03:33:13;;;;;;;;;2.00;0.00;;;;;;;;4961169;28;11564;-75
2020/12/25 03:35:40;;;;;;;;;0.00;0.00;;;;;;;;4979961;28;11577;-75
2020/12/25 03:38:06;;;;;;;;;2.00;0.25;;;;;;;;4974305;28;11519;-74
2020/12/25 03:40:34;;;;;;;;;0.00;0.00;;;;;;;;4966727;28;11549;-75
2020/12/25 03:43:01;;;;;;;;;1.00;1.00;;;;;;;;4965121;28;11552;-75
2020/12/25 03:45:28;;;;;;;;;0.75;0.75;;;;;;;;4969219;28;11513;-75
2020/12/25 03:47:55;;;;;;;;;2.50;2.50;;;;;;;;4975964;28;11553;-82
2020/12/25 03:50:22;;;;;;;;;0.75;0.75;;;;;;;;4981509;28;11677;-77
2020/12/25 03:52:48;;;;;;;;;0.25;0.25;;;;;;;;4982061;28;11529;-81
2020/12/25 03:55:15;;;;;;;;;0.00;0.00;;;;;;;;4973664;28;11529;-76
2020/12/25 03:57:42;;;;;;;;;0.00;0.00;;;;;;;;4966631;28;11521;-79
2020/12/25 04:00:08;;;;;;;;;0.00;0.00;;;;;;;;4971339;28;11550;-75
2020/12/25 04:02:35;;;;;;;;;0.00;0.00;;;;;;;;4978484;28;11539;-79
2020/12/25 04:05:04;;;;;;;;;0.00;0.00;;;;;;;;4978063;28;11532;-82
2020/12/25 04:07:31;;;;;;;;;0.00;0.00;;;;;;;;4978639;28;11526;-81
2020/12/25 04:09:57;;;;;;;;;0.00;0.00;;;;;;;;4979500;28;11564;-80
2020/12/25 04:12:24;;;;;;;;;0.00;0.00;;;;;;;;4982676;28;11537;-74
2020/12/25 04:14:51;;;;;;;;;0.00;0.00;;;;;;;;4966813;28;11537;-79
2020/12/25 04:17:18;;;;;;;;;2.00;0.00;;;;;;;;4971390;28;11553;-79
2020/12/25 04:19:45;;;;;;;;;0.50;0.50;;;;;;;;4971795;28;11542;-74
2020/12/25 04:22:13;;;;;;;;;0.50;0.00;;;;;;;;4957339;28;12437;-82
2020/12/25 04:24:40;;;;;;;;;5.00;5.00;;;;;;;;4967154;28;11500;-78
2020/12/25 04:27:07;;;;;;;;;0.00;0.00;;;;;;;;4966818;28;11537;-80
2020/12/25 04:29:34;;;;;;;;;3.50;1.75;;;;;;;;4982030;28;11510;-76
2020/12/25 04:32:01;;;;;;;;;4.00;2.00;;;;;;;;4968334;28;11581;-79
2020/12/25 04:34:28;;;;;;;;;5.00;2.00;;;;;;;;4974583;28;11544;-76
2020/12/25 04:36:54;;;;;;;;;5.50;5.50;;;;;;;;4969683;28;12323;-83
2020/12/25 04:39:22;;;;;;;;;0.00;0.00;;;;;;;;4962378;28;11542;-76
2020/12/25 04:41:49;;;;;;;;;0.00;0.00;;;;;;;;4964916;28;11565;-76
2020/12/25 04:44:16;;;;;;;;;3.00;1.75;;;;;;;;4973900;28;11521;-76
2020/12/25 04:46:43;;;;;;;;;1.00;1.00;;;;;;;;4968774;28;11532;-78
2020/12/25 04:49:10;;;;;;;;;0.00;0.00;;;;;;;;4953566;28;11601;-80
2020/12/25 04:51:36;;;;;;;;;0.50;0.50;;;;;;;;4963715;28;11545;-75
2020/12/25 04:54:03;;;;;;;;;0.00;0.00;;;;;;;;4976864;28;11521;-76
2020/12/25 04:56:31;;;;;;;;;0.00;0.00;;;;;;;;4969317;28;12846;-77
2020/12/25 04:58:57;;;;;;;;;0.00;0.00;;;;;;;;4967854;28;11552;-74
2020/12/25 05:01:24;;;;;;;;;1.75;0.00;;;;;;;;4971416;28;11485;-74
2020/12/25 05:03:51;;;;;;;;;0.00;0.00;;;;;;;;4983830;28;11523;-80
2020/12/25 05:06:19;;;;;;;;;0.00;0.00;;;;;;;;4971751;28;11522;-75
2020/12/25 05:08:47;;;;;;;;;0.00;0.00;;;;;;;;4978101;28;11516;-77
2020/12/25 05:11:15;;;;;;;;;0.00;0.00;;;;;;;;4955925;28;11520;-74
2020/12/25 05:13:46;;;;;;;;;0.00;0.00;;;;;;;;4974644;28;11572;-75
2020/12/25 05:16:14;;;;;;;;;1.25;0.00;;;;;;;;4983227;28;11514;-75
2020/12/25 05:18:43;;;;;;;;;0.00;0.00;;;;;;;;4972781;28;11510;-76
2020/12/25 05:21:11;;;;;;;;;0.00;0.00;;;;;;;;4968028;28;12314;-76
2020/12/25 05:23:39;;;;;;;;;0.50;0.00;;;;;;;;4961538;28;11541;-74
2020/12/25 05:26:07;;;;;;;;;0.00;0.00;;;;;;;;4970493;28;11510;-74
2020/12/25 05:28:38;;;;;;;;;0.00;0.00;;;;;;;;4974940;28;11571;-73
2020/12/25 05:31:07;;;;;;;;;1.00;0.00;;;;;;;;4955014;28;11484;-75
2020/12/25 05:33:34;;;;;;;;;0.00;0.00;;;;;;;;4965104;28;11555;-77
2020/12/25 05:36:08;;;;;;;;;1.00;1.00;;;;;;;;4980996;28;11511;-78
2020/12/25 05:38:37;;;;;;;;;0.00;0.00;;;;;;;;4962642;28;11545;-81
2020/12/25 05:41:05;;;;;;;;;0.00;0.00;;;;;;;;4980169;28;11533;-74
2020/12/25 05:43:32;;;;;;;;;0.00;0.00;;;;;;;;4975256;28;11549;-73
2020/12/25 05:45:59;;;;;;;;;1.00;1.00;;;;;;;;4973169;28;11529;-76
2020/12/25 05:48:27;;;;;;;;;2.00;2.00;;;;;;;;4985400;28;11527;-75
2020/12/25 05:50:54;;;;;;;;;1.25;1.00;;;;;;;;4977885;28;11546;-77
2020/12/25 05:53:21;;;;;;;;;7.00;7.00;;;;;;;;4974224;28;11530;-75
2020/12/25 05:55:48;;;;;;;;;2.50;2.50;;;;;;;;4957440;28;11571;-75
2020/12/25 05:58:16;;;;;;;;;0.25;0.25;;;;;;;;4963796;28;11582;-77
2020/12/25 06:00:44;;;;;;;;;2.00;2.00;;;;;;;;4979134;28;11434;-75
2020/12/25 06:03:13;;;;;;;;;1.50;0.75;;;;;;;;4949845;28;11549;-75
2020/12/25 06:05:41;;;;;;;;;6.50;2.00;;;;;;;;4985599;28;11533;-75
2020/12/25 06:08:17;;;;;;;;;5.00;2.50;;;;;;;;4966522;28;11535;-74
2020/12/25 06:10:45;;;;;;;;;4.25;2.00;;;;;;;;4967983;28;11553;-73
2020/12/25 06:13:14;;;;;;;;;4.00;3.50;;;;;;;;4969923;28;11558;-74
2020/12/25 06:15:47;;;;;;;;;3.75;3.00;;;;;;;;4982677;28;11556;-79
2020/12/25 06:18:37;;;;;;;;;0.75;0.75;;;;;;;;4960399;28;11547;-77
2020/12/25 06:21:11;;;;;;;;;1.50;1.00;;;;;;;;4947683;28;11711;-76
2020/12/25 06:23:41;;;;;;;;;3.50;3.50;;;;;;;;4955989;28;11563;-74
2020/12/25 06:26:08;;;;;;;;;2.00;2.00;;;;;;;;4948120;28;11566;-73
2020/12/25 06:28:40;;;;;;;;;10.50;10.50;;;;;;;;4957656;28;11585;-74
2020/12/25 06:31:10;;;;;;;;;7.00;7.00;;;;;;;;4946148;28;11510;-74
2020/12/25 06:33:38;;;;;;;;;6.50;6.50;;;;;;;;4949283;28;11655;-76
2020/12/25 06:36:05;;;;;;;;;4.50;1.25;;;;;;;;4948588;28;11685;-80
2020/12/25 06:38:42;;;;;;;;;5.00;5.00;;;;;;;;4946038;28;11619;-76
2020/12/25 06:41:11;;;;;;;;;5.00;5.00;;;;;;;;4953869;28;11563;-78
2020/12/25 06:43:38;;;;;;;;;8.50;8.50;;;;;;;;4976027;28;11554;-79
2020/12/25 06:46:05;;;;;;;;;7.00;5.00;;;;;;;;4966790;28;11572;-77
2020/12/25 06:48:32;;;;;;;;;13.00;10.25;;;;;;;;4948080;28;11572;-76
2020/12/25 06:51:00;;;;;;;;;12.25;12.25;;;;;;;;4949450;28;11575;-78
2020/12/25 06:53:35;;;;;;;;;8.00;5.00;;;;;;;;4964171;28;11767;-79
2020/12/25 06:56:10;;;;;;;;;21.50;19.25;;;;;;;;4934746;28;11671;-78
2020/12/25 06:58:39;;;;;;;;;10.00;8.50;;;;;;;;4961685;28;11587;-77
2020/12/25 07:01:06;;;;;;;;;0.75;0.75;;;;;;;;4965898;28;11601;-77
2020/12/25 07:03:37;;;;;;;;;0.25;0.25;;;;;;;;4967283;28;11591;-79
2020/12/25 07:06:04;;;;;;;;;1.25;1.00;;;;;;;;4946446;28;13064;-79
2020/12/25 07:08:34;;;;;;;;;0.75;0.75;;;;;;;;4952640;28;11497;-81
2020/12/25 07:11:05;;;;;;;;;4.25;4.25;;;;;;;;4949215;28;12321;-72
2020/12/25 07:13:33;;;;;;;;;6.25;4.00;;;;;;;;4949153;28;11652;-75
2020/12/25 07:16:01;;;;;;;;;9.00;8.00;;;;;;;;4947573;28;11694;-72
2020/12/25 07:18:28;;;;;;;;;7.75;5.00;;;;;;;;4966699;28;12364;-74
2020/12/25 07:20:56;;;;;;;;;9.00;9.00;;;;;;;;4971987;28;11669;-74
2020/12/25 07:23:24;;;;;;;;;8.00;8.00;;;;;;;;4978491;28;11555;-75
2020/12/25 07:25:53;;;;;;;;;2.00;0.25;;;;;;;;4972239;28;11537;-73
2020/12/25 07:28:23;;;;;;;;;1.00;1.00;;;;;;;;4969295;28;12297;-72
2020/12/25 07:30:52;;;;;;;;;6.50;4.25;;;;;;;;4977690;28;11428;-73
2020/12/25 07:33:19;;;;;;;;;0.00;0.00;;;;;;;;4985233;28;11532;-72
2020/12/25 07:35:46;;;;;;;;;4.00;4.00;;;;;;;;4977906;28;11509;-73
2020/12/25 07:38:13;;;;;;;;;1.00;1.00;;;;;;;;4956048;28;11658;-73
2020/12/25 07:40:40;;;;;;;;;4.75;4.75;;;;;;;;4979290;28;11535;-73
2020/12/25 07:43:09;;;;;;;;;5.00;2.50;;;;;;;;4983577;28;11532;-71
2020/12/25 07:45:37;;;;;;;;;10.00;10.00;;;;;;;;4977815;28;12289;-71
2020/12/25 07:48:05;;;;;;;;;8.00;8.00;;;;;;;;4981045;28;11583;-73
2020/12/25 07:50:37;;;;;;;;;2.00;2.00;;;;;;;;4979339;28;11606;-72
2020/12/25 07:53:11;;;;;;;;;1.00;1.00;;;;;;;;4964929;28;11624;-71
2020/12/25 07:55:39;;;;;;;;;4.00;2.50;;;;;;;;4975653;28;11544;-70
2020/12/25 07:58:07;;;;;;;;;1.75;1.75;;;;;;;;4967448;28;11533;-71
2020/12/25 08:00:34;;;;;;;;;0.75;0.00;;;;;;;;4978503;28;11465;-71
2020/12/25 08:03:01;;;;;;;;;0.00;0.00;;;;;;;;4984369;28;11610;-71
2020/12/25 08:05:29;;;;;;;;;3.00;0.00;;;;;;;;4965387;28;11514;-71
2020/12/25 08:07:56;;;;;;;;;0.00;0.00;;;;;;;;4984851;28;11510;-72
2020/12/25 08:10:24;;;;;;;;;0.00;0.00;;;;;;;;4977041;28;11663;-72
2020/12/25 08:12:52;;;;;;;;;1.00;1.00;;;;;;;;4970156;28;11646;-71
2020/12/25 08:15:20;;;;;;;;;0.25;0.25;;;;;;;;4972647;28;11503;-71
2020/12/25 08:17:51;;;;;;;;;1.00;1.00;;;;;;;;4982775;28;11560;-71
2020/12/25 08:20:18;;;;;;;;;6.00;6.00;;;;;;;;4982676;28;11032;-70
2020/12/25 08:22:44;;;;;;;;;15.75;13.50;;;;;;;;4972420;28;11560;-72
2020/12/25 08:25:11;;;;;;;;;5.00;2.00;;;;;;;;4963758;28;12540;-69
2020/12/25 08:27:38;;;;;;;;;0.75;0.75;;;;;;;;4968589;28;11537;-73
2020/12/25 08:30:06;;;;;;;;;4.75;4.75;;;;;;;;4945800;28;12290;-73
2020/12/25 08:32:34;;;;;;;;;4.50;3.00;;;;;;;;4973804;28;11510;-71
2020/12/25 08:35:14;;;;;;;;;9.50;5.75;;;;;;;;4970966;28;11528;-69
2020/12/25 08:37:50;;;;;;;;;1.25;1.25;;;;;;;;4969594;28;11551;-70
2020/12/25 08:40:17;;;;;;;;;2.00;1.25;;;;;;;;4979240;28;11007;-70
2020/12/25 08:42:44;;;;;;;;;1.25;1.25;;;;;;;;4982178;28;11517;-70
2020/12/25 08:45:16;;;;;;;;;4.00;1.00;;;;;;;;4977775;28;11559;-69
2020/12/25 08:47:43;;;;;;;;;4.75;4.75;;;;;;;;4968305;28;11031;-69
2020/12/25 08:50:10;;;;;;;;;0.75;0.75;;;;;;;;4969256;28;11517;-69
2020/12/25 08:52:37;;;;;;;;;4.50;1.00;;;;;;;;4966745;28;12326;-69
2020/12/25 08:55:04;;;;;;;;;0.00;0.00;;;;;;;;4972205;28;11573;-70
2020/12/25 08:57:31;;;;;;;;;1.00;1.00;;;;;;;;4965343;28;11562;-70
2020/12/25 09:00:03;;;;;;;;;3.50;1.00;;;;;;;;4974271;28;11523;-70
2020/12/25 09:02:30;;;;;;;;;2.00;2.00;;;;;;;;4975676;28;11530;-69
2020/12/25 09:04:57;;;;;;;;;1.50;0.50;;;;;;;;4973925;28;11500;-69
2020/12/25 09:07:24;;;;;;;;;2.75;2.00;;;;;;;;4973766;28;11518;-69
2020/12/25 09:09:51;;;;;;;;;2.00;2.00;;;;;;;;4978079;28;11687;-69
2020/12/25 09:12:19;;;;;;;;;4.00;4.00;;;;;;;;4971935;28;11522;-69
2020/12/25 09:14:46;;;;;;;;;9.00;9.00;;;;;;;;4955413;28;11034;-70
2020/12/25 09:17:13;;;;;;;;;10.00;6.00;;;;;;;;4964257;28;11536;-70
2020/12/25 09:19:40;;;;;;;;;2.50;2.50;;;;;;;;4978595;28;11581;-71
2020/12/25 09:22:08;;;;;;;;;3.00;3.00;;;;;;;;4979368;28;11601;-70
2020/12/25 09:24:34;;;;;;;;;0.00;0.00;;;;;;;;4975968;28;11497;-69
2020/12/25 09:27:01;;;;;;;;;3.00;3.00;;;;;;;;4974975;28;11587;-69
2020/12/25 09:29:28;;;;;;;;;10.25;10.25;;;;;;;;4972115;28;12288;-70
2020/12/25 09:31:54;;;;;;;;;4.00;2.50;;;;;;;;4981967;28;11489;-70
2020/12/25 09:34:21;;;;;;;;;2.50;1.00;;;;;;;;4977989;28;11582;-70
2020/12/25 09:36:48;;;;;;;;;0.00;0.00;;;;;;;;4975815;28;11663;-71
2020/12/25 09:39:15;;;;;;;;;0.00;0.00;;;;;;;;4977005;28;11525;-71
2020/12/25 09:41:42;;;;;;;;;7.00;7.00;;;;;;;;4984284;28;11532;-71
2020/12/25 09:44:09;;;;;;;;;1.00;1.00;;;;;;;;4982987;28;11510;-70
2020/12/25 09:46:35;;;;;;;;;2.00;2.00;;;;;;;;4983747;28;12238;-70
2020/12/25 09:49:02;;;;;;;;;0.75;0.75;;;;;;;;4974444;28;11490;-69
2020/12/25 09:51:29;;;;;;;;;36.50;30.00;;;;;;;;4972951;28;11567;-70
2020/12/25 09:53:55;;;;;;;;;6.75;3.75;;;;;;;;4969860;28;11593;-70
2020/12/25 09:56:23;;;;;;;;;8.00;7.25;;;;;;;;4977520;28;11556;-70
2020/12/25 09:58:50;;;;;;;;;33.25;24.75;;;;;;;;4973224;28;11547;-71
2020/12/25 10:01:16;;;;;;;;;8.00;5.25;;;;;;;;4978653;28;11523;-70
2020/12/25 10:03:43;;;;;;;;;14.75;9.25;;;;;;;;4978638;28;11549;-70
2020/12/25 10:06:10;;;;;;;;;20.50;17.50;;;;;;;;4972303;28;11549;-71
2020/12/25 10:08:36;;;;;;;;;28.00;25.50;;;;;;;;4964310;28;11634;-69
2020/12/25 10:11:03;;;;;;;;;18.00;15.00;;;;;;;;4965694;28;12446;-69
2020/12/25 10:13:31;;;;;;;;;12.00;12.00;;;;;;;;4973941;28;11592;-72
2020/12/25 10:15:57;;;;;;;;;9.00;9.00;;;;;;;;4974992;28;11617;-70
2020/12/25 10:18:24;;;;;;;;;10.50;9.00;;;;;;;;4972858;28;11556;-70
2020/12/25 10:20:51;;;;;;;;;6.50;6.50;;;;;;;;4964096;28;12376;-70
2020/12/25 10:23:17;;;;;;;;;2.00;2.00;;;;;;;;4971736;28;12350;-70
2020/12/25 10:25:44;;;;;;;;;27.00;24.25;;;;;;;;4978601;28;11429;-70
2020/12/25 10:28:11;;;;;;;;;24.25;18.75;;;;;;;;4976068;28;11594;-68
2020/12/25 10:30:38;;;;;;;;;9.25;8.50;;;;;;;;4972713;28;12384;-69
2020/12/25 10:33:05;;;;;;;;;1.00;1.00;;;;;;;;4973503;28;11539;-70
2020/12/25 10:35:32;;;;;;;;;5.50;5.00;;;;;;;;4979867;28;11456;-70
2020/12/25 10:37:58;;;;;;;;;20.50;20.50;;;;;;;;4976179;28;11484;-69
2020/12/25 10:40:25;;;;;;;;;138.00;115.33;;;;;;;;4965218;28;11597;-69
2020/12/25 10:42:51;;;;;;;;;6.50;4.75;;;;;;;;4980785;28;8860;-69
2020/12/25 10:45:18;;;;;;;;;4.50;4.50;;;;;;;;4969569;28;11484;-69
2020/12/25 10:47:46;;;;;;;;;9.00;9.00;;;;;;;;4981208;28;11498;-70
2020/12/25 10:50:13;;;;;;;;;4.00;4.00;;;;;;;;4983792;28;11525;-70
2020/12/25 10:52:39;;;;;;;;;4.75;4.75;;;;;;;;4968319;28;11460;-70
2020/12/25 10:55:06;;;;;;;;;9.75;7.50;;;;;;;;4976337;28;11553;-71
2020/12/25 10:57:33;;;;;;;;;14.25;12.25;;;;;;;;4959094;28;11589;-70
2020/12/25 11:00:00;;;;;;;;;5.00;2.00;;;;;;;;4970161;28;11673;-71
2020/12/25 11:02:27;;;;;;;;;8.50;8.50;;;;;;;;4968202;28;11435;-72
2020/12/25 11:04:54;;;;;;;;;7.75;7.75;;;;;;;;4964360;28;11553;-71
2020/12/25 11:07:21;;;;;;;;;12.00;12.00;;;;;;;;4966664;28;11535;-71
2020/12/25 11:09:48;;;;;;;;;17.00;16.00;;;;;;;;4973887;28;11561;-69
2020/12/25 11:12:14;;;;;;;;;31.00;25.75;;;;;;;;4975004;28;11557;-69
2020/12/25 11:14:41;;;;;;;;;7.50;2.00;;;;;;;;4975339;28;11601;-70
2020/12/25 11:17:08;;;;;;;;;11.00;11.00;;;;;;;;4970471;28;11497;-69
2020/12/25 11:19:35;;;;;;;;;67.00;53.00;;;;;;;;4971357;28;11504;-71
2020/12/25 11:22:02;;;;;;;;;23.25;16.25;;;;;;;;4979818;28;11587;-74
2020/12/25 11:24:29;;;;;;;;;2.50;2.50;;;;;;;;4973642;28;11612;-70
2020/12/25 11:26:55;;;;;;;;;0.75;0.75;;;;;;;;4970066;28;11449;-69
2020/12/25 11:29:22;;;;;;;;;8.00;8.00;;;;;;;;4965399;28;11465;-70
2020/12/25 11:31:49;;;;;;;;;8.50;8.50;;;;;;;;4967926;28;11523;-68
2020/12/25 11:34:15;;;;;;;;;8.75;8.75;;;;;;;;4964648;28;11602;-69
2020/12/25 11:36:42;;;;;;;;;28.25;26.00;;;;;;;;4968501;28;11473;-70
2020/12/25 11:39:10;;;;;;;;;42.50;38.50;;;;;;;;4972930;28;11614;-68
2020/12/25 11:41:37;;;;;;;;;14.00;14.00;;;;;;;;4972910;28;11594;-68
2020/12/25 11:44:04;;;;;;;;;8.50;8.50;;;;;;;;4981122;28;12377;-69
2020/12/25 11:46:31;;;;;;;;;64.50;55.25;;;;;;;;4967985;28;11484;-68
2020/12/25 11:48:57;;;;;;;;;16.50;16.50;;;;;;;;4968577;28;11628;-69
2020/12/25 11:51:25;;;;;;;;;11.25;9.25;;;;;;;;4975433;28;11550;-70
2020/12/25 11:53:52;;;;;;;;;5.00;4.00;;;;;;;;4968135;28;11609;-70
2020/12/25 11:56:21;;;;;;;;;55.75;45.50;;;;;;;;4966993;28;11739;-70
2020/12/25 11:58:49;;;;;;;;;73.50;58.00;;;;;;;;4964299;28;11609;-70
2020/12/25 12:01:16;;;;;;;;;24.00;23.00;;;;;;;;4964174;28;11549;-69
2020/12/25 12:03:43;;;;;;;;;8.50;8.50;;;;;;;;4944024;28;11538;-70
2020/12/25 12:06:10;;;;;;;;;1.75;1.75;;;;;;;;4968251;28;12316;-70
2020/12/25 12:08:36;;;;;;;;;21.00;16.00;;;;;;;;4968026;28;11511;-70
2020/12/25 12:11:04;;;;;;;;;5.50;5.50;;;;;;;;4971591;28;11640;-68
2020/12/25 12:13:32;;;;;;;;;11.75;9.75;;;;;;;;4964761;28;11551;-70
2020/12/25 12:15:59;;;;;;;;;8.50;8.50;;;;;;;;4966806;28;11442;-69
2020/12/25 12:18:25;;;;;;;;;1.00;1.00;;;;;;;;4973277;28;11465;-68
2020/12/25 12:20:52;;;;;;;;;11.75;9.50;;;;;;;;4976792;28;11486;-68
2020/12/25 12:23:19;;;;;;;;;6.00;6.00;;;;;;;;4966677;28;11609;-68
2020/12/25 12:25:46;;;;;;;;;2.75;2.75;;;;;;;;4972052;28;11593;-68
2020/12/25 12:28:12;;;;;;;;;2.25;2.25;;;;;;;;4971350;28;12194;-68
2020/12/25 12:30:40;;;;;;;;;6.50;6.50;;;;;;;;4976552;28;12296;-68
2020/12/25 12:33:06;;;;;;;;;18.50;13.00;;;;;;;;4982561;28;11464;-69
2020/12/25 12:35:33;;;;;;;;;4.50;1.75;;;;;;;;4970281;28;11510;-69
2020/12/25 12:38:00;;;;;;;;;0.00;0.00;;;;;;;;4963737;28;11468;-68
2020/12/25 12:40:27;;;;;;;;;2.50;1.00;;;;;;;;4966651;28;11458;-69
2020/12/25 12:42:54;;;;;;;;;0.00;0.00;;;;;;;;4974665;28;11438;-69
2020/12/25 12:45:21;;;;;;;;;19.75;19.25;;;;;;;;4980215;28;11581;-69
2020/12/25 12:47:48;;;;;;;;;1.00;1.00;;;;;;;;4974460;28;11549;-70
2020/12/25 12:50:15;;;;;;;;;11.25;9.00;;;;;;;;4971566;28;11520;-69
2020/12/25 12:52:42;;;;;;;;;6.75;6.75;;;;;;;;4966515;28;11750;-68
2020/12/25 12:55:09;;;;;;;;;2.75;1.00;;;;;;;;4968011;28;12334;-69
2020/12/25 12:57:35;;;;;;;;;1.00;1.00;;;;;;;;4969285;28;11271;-69
2020/12/25 13:00:03;;;;;;;;;1.75;1.75;;;;;;;;4974616;28;11430;-69
2020/12/25 13:02:30;;;;;;;;;4.00;4.00;;;;;;;;4963877;28;11517;-69
2020/12/25 13:53:40;;;;;;;;;2.75;1.25;;;;;;;;4975920;28;11443;-70
2020/12/25 13:56:08;;;;;;;;;6.50;5.50;;;;;;;;4982393;28;11475;-69
2020/12/25 13:58:35;;;;;;;;;5.25;4.25;;;;;;;;4948475;28;11549;-70
2020/12/25 14:01:03;;;;;;;;;8.50;5.50;;;;;;;;4978887;28;11449;-68
2020/12/25 14:03:32;;;;;;;;;8.00;5.75;;;;;;;;4963893;28;11502;-68
2020/12/25 14:05:59;;;;;;;;;9.50;9.50;;;;;;;;4965010;28;11598;-69
2020/12/25 14:08:26;;;;;;;;;4.50;4.00;;;;;;;;4977100;28;11509;-68
2020/12/25 14:10:54;;;;;;;;;3.50;3.50;;;;;;;;4974482;28;11500;-69
2020/12/25 14:13:21;;;;;;;;;1.75;1.75;;;;;;;;4974220;28;11484;-69
2020/12/25 14:15:48;;;;;;;;;1.25;1.25;;;;;;;;4978503;28;11466;-69
2020/12/25 14:18:16;;;;;;;;;6.00;6.00;;;;;;;;4970403;28;11471;-70
2020/12/25 14:20:43;;;;;;;;;1.25;1.25;;;;;;;;4978695;28;11499;-69
2020/12/25 14:23:10;;;;;;;;;2.50;1.00;;;;;;;;4983953;28;11485;-70
2020/12/25 14:25:38;;;;;;;;;2.00;2.00;;;;;;;;4972783;28;11559;-70
2020/12/25 14:28:06;;;;;;;;;1.00;1.00;;;;;;;;4981067;28;11487;-70
2020/12/25 14:30:33;;;;;;;;;7.50;7.50;;;;;;;;4981484;28;12244;-68
2020/12/25 14:33:01;;;;;;;;;4.25;4.25;;;;;;;;4983327;28;11525;-69
2020/12/25 14:35:28;;;;;;;;;2.00;2.00;;;;;;;;4981714;28;11559;-68
2020/12/25 14:37:55;;;;;;;;;1.50;1.50;;;;;;;;4975103;28;11475;-68
2020/12/25 14:40:22;;;;;;;;;4.00;4.00;;;;;;;;4966102;28;12034;-69
2020/12/25 14:42:49;;;;;;;;;5.75;4.00;;;;;;;;4965717;28;11515;-69
2020/12/25 14:45:17;;;;;;;;;4.00;4.00;;;;;;;;4968164;28;11613;-69
2020/12/25 14:47:44;;;;;;;;;17.00;14.50;;;;;;;;4972509;28;11558;-70
2020/12/25 14:50:10;;;;;;;;;13.50;5.75;;;;;;;;4975296;28;11598;-69
2020/12/25 14:52:37;;;;;;;;;18.00;16.50;;;;;;;;4973536;28;11525;-69
2020/12/25 14:55:04;;;;;;;;;24.25;24.00;;;;;;;;4966849;28;11618;-70
2020/12/25 14:57:31;;;;;;;;;3.50;3.50;;;;;;;;4978121;28;11615;-70
2020/12/25 14:59:57;;;;;;;;;4.00;3.50;;;;;;;;4971990;28;12206;-70
2020/12/25 15:02:25;;;;;;;;;4.75;4.75;;;;;;;;4967190;28;11486;-69
2020/12/25 15:04:52;;;;;;;;;13.25;12.75;;;;;;;;4967721;28;11482;-69
2020/12/25 15:07:19;;;;;;;;;4.50;1.50;;;;;;;;4980472;28;11510;-70
2020/12/25 15:09:46;;;;;;;;;9.50;7.50;;;;;;;;4969599;28;11513;-72
2020/12/25 15:12:12;;;;;;;;;12.75;12.75;;;;;;;;4975346;28;11532;-69
2020/12/25 15:14:39;;;;;;;;;13.00;13.00;;;;;;;;4970581;28;12352;-70
2020/12/25 15:17:06;;;;;;;;;4.50;4.00;;;;;;;;4963896;28;11570;-69
2020/12/25 15:19:34;;;;;;;;;20.00;13.00;;;;;;;;4951333;28;11461;-70
2020/12/25 15:22:00;;;;;;;;;4.25;4.25;;;;;;;;4973837;28;11578;-69
2020/12/25 15:24:27;;;;;;;;;4.50;4.50;;;;;;;;4971483;28;11610;-69
2020/12/25 15:26:54;;;;;;;;;5.00;5.00;;;;;;;;4969632;28;11529;-69
2020/12/25 15:29:21;;;;;;;;;2.50;0.75;;;;;;;;4968961;28;11485;-69
2020/12/25 15:31:47;;;;;;;;;5.00;3.00;;;;;;;;4966597;28;11449;-69